ROKJ(METAR)
10/16 19:00
ROKJ 161000Z 36015KT 9999 FEW010 SCT020 26/24 Q1014 RMK A2997=
戻る
トップページへ戻る
IMOC Co,.Ltd.